createdAt,value
2022-11-24T00:01:18.137Z,8.73
2022-11-24T00:03:46.794Z,7.18
2022-11-24T00:06:16.104Z,8.15
2022-11-24T00:08:45.289Z,6.85
2022-11-24T00:11:15.545Z,8.13
2022-11-24T00:13:43.386Z,9.27
2022-11-24T00:16:15.222Z,6.13
2022-11-24T00:18:44.733Z,8.77
2022-11-24T00:21:12.492Z,7.95
2022-11-24T00:23:40.120Z,7.07
2022-11-24T00:26:30.815Z,8.27
2022-11-24T00:31:32.523Z,7.10
2022-11-24T00:34:02.470Z,6.60
2022-11-24T00:36:31.773Z,8.05
2022-11-24T00:39:04.378Z,8.20
2022-11-24T00:41:32.424Z,8.77
2022-11-24T00:44:00.157Z,8.45
2022-11-24T00:46:28.254Z,6.78
2022-11-24T00:48:56.149Z,7.38
2022-11-24T00:51:27.448Z,7.00
2022-11-24T00:53:56.644Z,7.93
2022-11-24T00:56:25.134Z,9.43
2022-11-24T00:58:53.050Z,6.53
2022-11-24T01:01:24.021Z,7.07
2022-11-24T01:03:51.822Z,8.95
2022-11-24T01:06:24.652Z,7.55
2022-11-24T01:08:52.904Z,7.57
2022-11-24T01:11:23.640Z,6.60
2022-11-24T01:13:59.634Z,8.95
2022-11-24T01:16:30.488Z,7.50
2022-11-24T01:18:57.960Z,7.28
2022-11-24T01:21:25.380Z,8.18
2022-11-24T01:23:52.765Z,7.60
2022-11-24T01:26:22.520Z,7.63
2022-11-24T01:28:54.472Z,7.10
2022-11-24T01:31:21.934Z,9.95
2022-11-24T01:33:49.327Z,8.50
2022-11-24T01:36:16.660Z,8.57
2022-11-24T01:38:44.008Z,7.03
2022-11-24T01:41:15.109Z,6.97
2022-11-24T01:43:43.608Z,6.95
2022-11-24T01:46:18.463Z,8.10
2022-11-24T01:48:57.541Z,7.43
2022-11-24T01:51:28.931Z,7.32
2022-11-24T01:54:07.323Z,9.43
2022-11-24T01:56:37.485Z,9.13
2022-11-24T01:59:07.114Z,8.07
2022-11-24T02:01:34.627Z,7.72
2022-11-24T02:04:05.186Z,7.20
2022-11-24T02:06:35.609Z,6.95
2022-11-24T02:09:29.028Z,8.00
2022-11-24T02:11:58.927Z,8.85
2022-11-24T02:14:27.824Z,9.93
2022-11-24T02:16:55.058Z,9.63
2022-11-24T02:19:40.370Z,9.65
2022-11-24T02:22:36.427Z,10.63
2022-11-24T02:25:23.849Z,10.20
2022-11-24T02:27:54.216Z,9.82
2022-11-24T02:32:51.734Z,5.90
2022-11-24T02:35:19.570Z,8.60
2022-11-24T02:37:46.937Z,10.10
2022-11-24T02:40:25.139Z,9.18
2022-11-24T02:42:59.532Z,7.88
2022-11-24T02:45:27.699Z,7.30
2022-11-24T02:47:56.645Z,8.60
2022-11-24T02:50:24.015Z,8.73
2022-11-24T02:52:51.279Z,12.52
2022-11-24T02:55:18.884Z,8.93
2022-11-24T02:57:46.442Z,11.23
2022-11-24T03:00:14.210Z,9.98
2022-11-24T03:02:41.854Z,7.18
2022-11-24T03:05:12.251Z,8.82
2022-11-24T03:07:39.740Z,13.13
2022-11-24T03:10:07.609Z,11.23
2022-11-24T03:12:35.003Z,10.65
2022-11-24T03:15:03.547Z,7.60
2022-11-24T03:17:30.873Z,10.20
2022-11-24T03:20:04.634Z,9.48
2022-11-24T03:22:32.764Z,8.68
2022-11-24T03:25:00.035Z,8.70
2022-11-24T03:27:27.427Z,8.93
2022-11-24T03:29:54.809Z,9.63
2022-11-24T03:32:22.119Z,9.93
2022-11-24T03:34:49.394Z,10.30
2022-11-24T03:37:16.788Z,9.63
2022-11-24T03:39:44.106Z,8.55
2022-11-24T03:42:11.418Z,9.10
2022-11-24T03:44:38.679Z,8.02
2022-11-24T03:47:05.947Z,10.63
2022-11-24T03:49:33.434Z,7.25
2022-11-24T03:52:06.530Z,8.38
2022-11-24T03:54:35.588Z,7.10
2022-11-24T03:57:03.128Z,8.43
2022-11-24T03:59:30.469Z,9.75
2022-11-24T04:01:57.725Z,8.15
2022-11-24T04:04:24.999Z,10.10
2022-11-24T04:06:52.328Z,7.55
2022-11-24T04:09:19.617Z,8.30
2022-11-24T04:12:05.371Z,7.68
2022-11-24T04:14:33.090Z,8.15
2022-11-24T04:17:00.572Z,8.02
2022-11-24T04:19:27.902Z,10.48
2022-11-24T04:21:55.382Z,8.43
2022-11-24T04:24:22.775Z,6.72
2022-11-24T04:26:50.069Z,10.40
2022-11-24T04:29:17.315Z,10.23
2022-11-24T04:31:44.660Z,9.20
2022-11-24T04:34:12.127Z,9.73
2022-11-24T04:36:41.271Z,9.27
2022-11-24T04:39:19.425Z,8.63
2022-11-24T04:41:54.320Z,7.75
2022-11-24T04:44:21.752Z,20.98
2022-11-24T04:46:49.216Z,45.55
2022-11-24T04:49:16.885Z,19.13
2022-11-24T04:51:44.468Z,17.10
2022-11-24T04:54:15.818Z,13.45
2022-11-24T04:56:44.279Z,9.98
2022-11-24T04:59:15.431Z,7.60
2022-11-24T05:01:43.891Z,8.52
2022-11-24T05:04:12.609Z,9.93
2022-11-24T05:06:40.419Z,7.85
2022-11-24T05:09:08.561Z,7.47
2022-11-24T05:11:35.682Z,8.90
2022-11-24T05:14:02.973Z,8.57
2022-11-24T05:16:30.444Z,7.70
2022-11-24T05:18:57.605Z,9.13
2022-11-24T05:21:24.830Z,7.85
2022-11-24T05:23:52.066Z,7.32
2022-11-24T05:26:19.221Z,7.38
2022-11-24T05:28:46.480Z,7.20
2022-11-24T05:31:13.800Z,10.05
2022-11-24T05:33:41.053Z,7.32
2022-11-24T05:36:08.791Z,7.53
2022-11-24T05:38:36.336Z,7.85
2022-11-24T05:41:05.691Z,7.93
2022-11-24T05:43:32.931Z,9.40
2022-11-24T05:46:01.459Z,8.02
2022-11-24T05:48:28.797Z,7.68
2022-11-24T05:50:57.177Z,8.20
2022-11-24T05:53:26.473Z,8.98
2022-11-24T05:55:53.937Z,10.65
2022-11-24T05:58:21.203Z,6.47
2022-11-24T06:00:48.634Z,7.22
2022-11-24T06:03:16.082Z,7.50
2022-11-24T06:05:47.339Z,8.15
2022-11-24T06:08:14.709Z,7.60
2022-11-24T06:10:42.457Z,9.50
2022-11-24T06:13:09.723Z,8.32
2022-11-24T06:15:38.011Z,7.57
2022-11-24T06:18:05.240Z,8.98
2022-11-24T06:20:33.173Z,10.75
2022-11-24T06:23:01.568Z,9.50
2022-11-24T06:25:29.319Z,9.70
2022-11-24T06:27:56.550Z,7.75
2022-11-24T06:30:23.926Z,8.35
2022-11-24T06:32:55.439Z,10.32
2022-11-24T06:35:22.596Z,7.28
2022-11-24T06:37:49.837Z,8.43
2022-11-24T06:40:17.339Z,25.00
2022-11-24T06:42:51.593Z,20.42
2022-11-24T06:45:18.814Z,11.98
2022-11-24T06:47:45.955Z,12.68
2022-11-24T06:50:13.145Z,10.40
2022-11-24T06:52:40.315Z,10.75
2022-11-24T06:55:08.091Z,14.43
2022-11-24T06:57:35.513Z,8.70
2022-11-24T07:00:04.428Z,9.95
2022-11-24T07:02:31.669Z,8.95
2022-11-24T07:04:58.879Z,8.25
2022-11-24T07:07:26.213Z,9.88
2022-11-24T07:09:53.444Z,9.48
2022-11-24T07:12:20.658Z,7.55
2022-11-24T07:14:48.004Z,10.75
2022-11-24T07:17:15.126Z,10.20
2022-11-24T07:19:42.309Z,11.18
2022-11-24T07:22:09.538Z,12.40
2022-11-24T07:24:37.076Z,9.73
2022-11-24T07:27:04.367Z,12.57
2022-11-24T07:29:31.570Z,10.85
2022-11-24T07:32:05.063Z,9.40
2022-11-24T07:34:33.161Z,12.52
2022-11-24T07:37:00.427Z,12.57
2022-11-24T07:39:27.545Z,8.85
2022-11-24T07:41:54.780Z,11.52
2022-11-24T07:44:22.038Z,10.60
2022-11-24T07:46:51.438Z,10.80
2022-11-24T07:49:19.519Z,8.00
2022-11-24T07:51:46.677Z,9.05
2022-11-24T07:54:13.793Z,9.15
2022-11-24T07:56:41.217Z,10.32
2022-11-24T07:59:08.390Z,8.77
2022-11-24T08:01:35.547Z,9.15
2022-11-24T08:04:02.991Z,6.97
2022-11-24T08:06:38.682Z,6.40
2022-11-24T08:09:09.111Z,8.48
2022-11-24T08:11:36.749Z,31.73
2022-11-24T08:14:03.923Z,22.30
2022-11-24T08:16:32.274Z,13.40
2022-11-24T08:18:59.453Z,13.27
2022-11-24T08:21:26.613Z,17.27
2022-11-24T08:23:57.512Z,12.27
2022-11-24T08:26:26.008Z,11.52
2022-11-24T08:28:56.335Z,11.60
2022-11-24T08:31:25.157Z,10.10
2022-11-24T08:33:52.362Z,9.80
2022-11-24T08:36:19.903Z,10.20
2022-11-24T08:38:48.372Z,13.00
2022-11-24T08:41:17.245Z,10.68
2022-11-24T08:43:44.433Z,9.75
2022-11-24T08:46:14.047Z,8.40
2022-11-24T08:48:41.814Z,10.70
2022-11-24T08:51:11.813Z,10.35
2022-11-24T08:53:39.932Z,12.07
2022-11-24T08:56:07.963Z,8.98
2022-11-24T08:58:35.601Z,7.57
2022-11-24T09:01:12.721Z,9.98
2022-11-24T09:03:44.976Z,28.85
2022-11-24T09:06:16.543Z,20.13
2022-11-24T09:08:43.631Z,12.10
2022-11-24T09:11:13.537Z,12.35
2022-11-24T09:13:41.504Z,13.10
2022-11-24T09:16:12.401Z,10.98
2022-11-24T09:18:39.964Z,8.50
2022-11-24T09:21:15.753Z,11.45
2022-11-24T09:23:44.152Z,11.32
2022-11-24T09:26:17.227Z,13.68
2022-11-24T09:28:44.592Z,18.33
2022-11-24T09:31:14.867Z,9.75
2022-11-24T09:33:42.286Z,9.57
2022-11-24T09:36:10.042Z,10.93
2022-11-24T09:38:37.323Z,9.85
2022-11-24T09:41:35.612Z,10.07
2022-11-24T09:44:32.652Z,8.80
2022-11-24T09:47:37.203Z,7.80
2022-11-24T09:50:30.692Z,11.30
2022-11-24T09:53:30.094Z,9.90
2022-11-24T09:56:00.784Z,5.95
2022-11-24T09:58:49.053Z,8.43
2022-11-24T10:01:30.638Z,7.10
2022-11-24T10:04:05.530Z,8.13
2022-11-24T10:06:45.834Z,8.43
2022-11-24T10:09:50.805Z,8.65
2022-11-24T10:12:39.391Z,8.88
2022-11-24T10:15:35.191Z,7.55
2022-11-24T10:18:05.363Z,8.73
2022-11-24T10:20:51.413Z,7.75
2022-11-24T10:23:41.147Z,6.68
2022-11-24T10:26:38.135Z,8.18
2022-11-24T10:29:25.011Z,6.50
2022-11-24T10:31:55.533Z,7.80
2022-11-24T10:34:32.692Z,5.07
2022-11-24T10:37:10.723Z,4.10
2022-11-24T10:39:58.591Z,7.75
2022-11-24T10:42:29.521Z,7.47
2022-11-24T10:45:01.636Z,6.72
2022-11-24T10:47:30.047Z,6.07
2022-11-24T10:50:28.553Z,8.65
2022-11-24T10:53:19.991Z,6.78
2022-11-24T10:56:05.331Z,7.05
2022-11-24T10:58:40.211Z,7.32
2022-11-24T11:01:13.407Z,5.88
2022-11-24T11:03:58.391Z,5.78
2022-11-24T11:06:26.706Z,5.88
2022-11-24T11:09:09.431Z,5.82
2022-11-24T11:11:39.464Z,4.10
2022-11-24T11:14:09.105Z,4.45
2022-11-24T11:16:52.283Z,4.73
2022-11-24T11:20:00.090Z,4.65
2022-11-24T11:22:38.244Z,2.83
2022-11-24T11:25:23.504Z,6.80
2022-11-24T11:27:50.777Z,3.67
2022-11-24T11:36:16.094Z,4.75
2022-11-24T11:38:44.586Z,6.35
2022-11-24T11:41:22.823Z,5.32
2022-11-24T11:43:58.614Z,4.88
2022-11-24T11:46:30.998Z,5.88
2022-11-24T11:48:58.487Z,4.18
2022-11-24T11:54:57.945Z,4.47
2022-11-24T11:57:57.109Z,2.75
2022-11-24T12:00:24.456Z,5.25
2022-11-24T12:03:31.820Z,3.58
2022-11-24T12:06:24.012Z,3.38
2022-11-24T12:12:27.237Z,5.75
2022-11-24T12:15:22.783Z,5.93
2022-11-24T12:18:26.780Z,6.07
2022-11-24T12:21:27.770Z,5.47
2022-11-24T12:24:24.415Z,4.50
2022-11-24T12:27:04.268Z,3.75
2022-11-24T12:29:46.425Z,5.70
2022-11-24T12:32:16.334Z,4.72
2022-11-24T12:35:03.543Z,4.85
2022-11-24T12:38:00.089Z,5.07
2022-11-24T12:44:00.168Z,3.97
2022-11-24T12:46:59.361Z,7.13
2022-11-24T12:49:31.961Z,3.53
2022-11-24T12:52:05.463Z,2.72
2022-11-24T12:54:40.859Z,3.05
2022-11-24T12:57:33.353Z,5.45
2022-11-24T13:00:32.605Z,4.07
2022-11-24T13:02:59.905Z,4.43
2022-11-24T13:05:37.882Z,5.65
2022-11-24T13:08:06.164Z,4.18
2022-11-24T13:14:02.501Z,3.70
2022-11-24T13:16:44.326Z,5.05
2022-11-24T13:19:30.420Z,1.15
2022-11-24T13:22:11.012Z,5.18
2022-11-24T13:27:27.233Z,3.38
2022-11-24T13:29:55.054Z,3.47
2022-11-24T13:32:22.201Z,4.70
2022-11-24T13:34:55.352Z,4.65
2022-11-24T13:37:28.851Z,6.95
2022-11-24T13:40:22.905Z,4.03
2022-11-24T13:42:56.593Z,5.63
2022-11-24T13:45:47.124Z,5.53
2022-11-24T13:48:22.279Z,5.35
2022-11-24T13:50:56.391Z,4.95
2022-11-24T13:53:49.958Z,4.57
2022-11-24T13:56:17.144Z,5.43
2022-11-24T13:58:57.704Z,4.72
2022-11-24T14:01:34.579Z,6.32
2022-11-24T14:04:31.871Z,3.72
2022-11-24T14:07:14.540Z,5.25
2022-11-24T14:09:48.430Z,4.45
2022-11-24T14:12:24.096Z,2.65
2022-11-24T14:14:53.240Z,4.65
2022-11-24T14:17:23.174Z,4.53
2022-11-24T14:19:53.684Z,4.95
2022-11-24T14:22:27.073Z,4.18
2022-11-24T14:24:59.281Z,5.57
2022-11-24T14:27:37.984Z,4.68
2022-11-24T14:30:20.131Z,4.47
2022-11-24T14:33:02.097Z,4.78
2022-11-24T14:35:33.753Z,2.92
2022-11-24T14:38:03.718Z,5.53
2022-11-24T14:40:50.411Z,4.07
2022-11-24T14:43:32.251Z,17.98
2022-11-24T14:46:04.299Z,40.25
2022-11-24T14:48:37.180Z,11.23
2022-11-24T14:51:13.040Z,7.60
2022-11-24T14:53:45.631Z,5.20
2022-11-24T14:56:34.671Z,3.75
2022-11-24T14:59:02.701Z,3.03
2022-11-24T15:01:34.287Z,3.83
2022-11-24T15:07:29.768Z,4.20
2022-11-24T15:10:00.205Z,4.30
2022-11-24T15:12:42.371Z,4.25
2022-11-24T15:15:15.524Z,4.05
2022-11-24T15:17:51.721Z,4.95
2022-11-24T15:20:41.863Z,4.85
2022-11-24T15:23:24.915Z,3.97
2022-11-24T15:26:04.302Z,4.03
2022-11-24T15:28:31.908Z,3.25
2022-11-24T15:31:07.086Z,3.60
2022-11-24T15:33:34.304Z,5.63
2022-11-24T15:36:01.452Z,5.22
2022-11-24T15:38:28.882Z,6.28
2022-11-24T15:40:58.704Z,6.35
2022-11-24T15:43:41.204Z,4.25
2022-11-24T15:46:09.732Z,5.82
2022-11-24T15:48:36.892Z,2.97
2022-11-24T15:51:12.922Z,4.10
2022-11-24T15:53:44.464Z,5.43
2022-11-24T15:56:36.865Z,3.80
2022-11-24T15:59:04.783Z,3.45
2022-11-24T16:01:34.314Z,6.55
2022-11-24T16:04:01.970Z,4.10
2022-11-24T16:06:29.214Z,2.45
2022-11-24T16:08:57.836Z,3.85
2022-11-24T16:11:25.443Z,4.45
2022-11-24T16:13:54.053Z,5.28
2022-11-24T16:16:23.301Z,4.38
2022-11-24T16:18:50.975Z,3.75
2022-11-24T16:21:18.128Z,5.35
2022-11-24T16:23:45.951Z,5.90
2022-11-24T16:26:13.077Z,3.60
2022-11-24T16:28:40.853Z,2.88
2022-11-24T16:31:08.036Z,5.53
2022-11-24T16:33:35.274Z,4.95
2022-11-24T16:36:02.457Z,5.05
2022-11-24T16:38:29.821Z,3.97
2022-11-24T16:40:57.163Z,4.07
2022-11-24T16:43:24.850Z,3.88
2022-11-24T16:46:18.893Z,3.95
2022-11-24T16:48:48.062Z,2.55
2022-11-24T16:51:16.095Z,4.93
2022-11-24T16:53:43.629Z,4.72
2022-11-24T16:56:11.423Z,4.70
2022-11-24T16:58:40.524Z,4.63
2022-11-24T17:01:12.235Z,5.38
2022-11-24T17:03:40.244Z,2.95
2022-11-24T17:06:09.916Z,4.05
2022-11-24T17:08:39.515Z,3.87
2022-11-24T17:11:21.934Z,3.85
2022-11-24T17:13:49.652Z,4.28
2022-11-24T17:16:19.808Z,5.32
2022-11-24T17:18:47.163Z,4.20
2022-11-24T17:21:18.303Z,4.68
2022-11-24T17:23:45.621Z,3.80
2022-11-24T17:26:15.212Z,4.15
2022-11-24T17:28:43.136Z,4.35
2022-11-24T17:31:24.605Z,3.92
2022-11-24T17:33:54.682Z,3.85
2022-11-24T17:36:21.951Z,3.33
2022-11-24T17:38:49.974Z,3.63
2022-11-24T17:41:20.991Z,3.63
2022-11-24T17:43:56.854Z,4.95
2022-11-24T17:46:25.746Z,4.72
2022-11-24T17:48:53.582Z,4.18
2022-11-24T17:51:22.581Z,3.08
2022-11-24T17:53:52.389Z,4.90
2022-11-24T17:56:23.807Z,4.78
2022-11-24T17:58:55.601Z,9.43
2022-11-24T18:01:24.005Z,40.90
2022-11-24T18:03:53.759Z,20.02
2022-11-24T18:06:24.334Z,21.33
2022-11-24T18:08:54.292Z,22.38
2022-11-24T18:11:31.107Z,11.05
2022-11-24T18:14:02.152Z,9.85
2022-11-24T18:16:36.415Z,12.07
2022-11-24T18:19:09.823Z,9.00
2022-11-24T18:21:41.233Z,9.15
2022-11-24T18:24:10.483Z,13.20
2022-11-24T18:26:41.932Z,35.15
2022-11-24T18:29:11.266Z,30.48
2022-11-24T18:31:38.883Z,12.65
2022-11-24T18:34:07.093Z,14.70
2022-11-24T18:36:35.320Z,12.95
2022-11-24T18:39:08.755Z,9.25
2022-11-24T18:41:36.661Z,11.68
2022-11-24T18:44:09.998Z,6.55
2022-11-24T18:46:39.414Z,7.38
2022-11-24T18:49:07.545Z,7.53
2022-11-24T18:51:34.872Z,6.45
2022-11-24T18:54:04.845Z,6.30
2022-11-24T18:56:33.129Z,6.55
2022-11-24T18:59:00.724Z,6.43
2022-11-24T19:01:29.427Z,6.60
2022-11-24T19:03:59.611Z,5.25
2022-11-24T19:06:35.373Z,6.18
2022-11-24T19:09:06.965Z,7.40
2022-11-24T19:11:37.641Z,16.15
2022-11-24T19:16:34.295Z,11.68
2022-11-24T19:19:05.079Z,7.70
2022-11-24T19:21:34.874Z,9.57
2022-11-24T19:24:05.281Z,7.00
2022-11-24T19:26:36.594Z,6.85
2022-11-24T19:29:05.044Z,7.75
2022-11-24T19:31:33.272Z,6.18
2022-11-24T19:34:01.319Z,8.82
2022-11-24T19:36:28.771Z,5.88
2022-11-24T19:38:57.735Z,10.15
2022-11-24T19:41:28.692Z,7.95
2022-11-24T19:43:57.241Z,15.00
2022-11-24T19:46:30.005Z,12.98
2022-11-24T19:49:00.201Z,8.98
2022-11-24T19:51:30.974Z,7.18
2022-11-24T19:53:58.442Z,4.85
2022-11-24T19:56:32.347Z,7.32
2022-11-24T19:59:00.594Z,3.92
2022-11-24T20:01:30.171Z,3.80
2022-11-24T20:04:05.885Z,6.80
2022-11-24T20:06:39.351Z,5.95
2022-11-24T20:09:10.618Z,4.53
2022-11-24T20:11:39.145Z,5.40
2022-11-24T20:14:08.313Z,4.22
2022-11-24T20:16:36.082Z,5.18
2022-11-24T20:19:06.894Z,5.75
2022-11-24T20:21:36.727Z,5.55
2022-11-24T20:24:17.541Z,4.00
2022-11-24T20:27:02.267Z,4.10
2022-11-24T20:29:32.584Z,3.92
2022-11-24T20:32:00.780Z,4.65
2022-11-24T20:34:29.081Z,3.88
2022-11-24T20:36:57.629Z,5.45
2022-11-24T20:39:28.532Z,5.20
2022-11-24T20:41:57.931Z,3.47
2022-11-24T20:44:27.624Z,6.22
2022-11-24T20:46:56.934Z,4.43
2022-11-24T20:49:25.334Z,3.28
2022-11-24T20:51:55.174Z,3.65
2022-11-24T20:54:23.214Z,5.00
2022-11-24T20:56:50.659Z,4.68
2022-11-24T20:59:21.709Z,3.03
2022-11-24T21:01:50.575Z,4.65
2022-11-24T21:04:24.717Z,4.35
2022-11-24T21:06:52.701Z,3.63
2022-11-24T21:09:20.527Z,4.25
2022-11-24T21:11:47.873Z,5.45
2022-11-24T21:14:15.342Z,3.85
2022-11-24T21:16:42.826Z,3.50
2022-11-24T21:19:15.251Z,4.40
2022-11-24T21:21:43.471Z,4.07
2022-11-24T21:24:13.632Z,5.72
2022-11-24T21:26:42.468Z,4.32
2022-11-24T21:29:13.573Z,5.75
2022-11-24T21:31:41.439Z,4.70
2022-11-24T21:34:09.574Z,4.68
2022-11-24T21:36:40.471Z,3.63
2022-11-24T21:39:07.918Z,4.63
2022-11-24T21:41:35.191Z,3.97
2022-11-24T21:44:02.481Z,3.05
2022-11-24T21:46:40.421Z,3.85
2022-11-24T21:49:09.763Z,5.00
2022-11-24T21:51:36.889Z,5.45
2022-11-24T21:54:04.165Z,4.60
2022-11-24T21:56:31.371Z,5.03
2022-11-24T21:58:58.811Z,5.82
2022-11-24T22:01:28.301Z,5.35
2022-11-24T22:03:56.115Z,5.72
2022-11-24T22:06:25.638Z,1.80
2022-11-24T22:08:52.992Z,4.68
2022-11-24T22:11:22.765Z,5.82
2022-11-24T22:13:51.335Z,4.30
2022-11-24T22:16:23.711Z,5.25
2022-11-24T22:18:51.356Z,3.97
2022-11-24T22:21:34.532Z,4.78
2022-11-24T22:24:02.112Z,4.25
2022-11-24T22:26:30.074Z,4.97
2022-11-24T22:28:58.311Z,4.13
2022-11-24T22:31:27.938Z,4.65
2022-11-24T22:33:56.166Z,4.30
2022-11-24T22:36:26.003Z,5.45
2022-11-24T22:38:55.232Z,3.58
2022-11-24T22:41:23.103Z,6.15
2022-11-24T22:43:51.062Z,6.30
2022-11-24T22:46:20.463Z,5.25
2022-11-24T22:48:49.503Z,4.78
2022-11-24T22:51:19.215Z,6.70
2022-11-24T22:53:51.502Z,6.73
2022-11-24T22:56:19.929Z,4.18
2022-11-24T22:58:47.815Z,5.55
2022-11-24T23:01:16.225Z,4.35
2022-11-24T23:03:44.279Z,4.15
2022-11-24T23:06:20.652Z,4.90
2022-11-24T23:08:48.051Z,5.18
2022-11-24T23:11:32.734Z,4.65
2022-11-24T23:14:03.785Z,3.70
2022-11-24T23:16:31.344Z,3.72
2022-11-24T23:18:58.862Z,4.25
2022-11-24T23:21:31.612Z,5.55
2022-11-24T23:24:00.981Z,5.35
2022-11-24T23:26:30.872Z,2.78
2022-11-24T23:28:58.051Z,5.18
2022-11-24T23:31:29.915Z,4.45
2022-11-24T23:34:03.181Z,4.97
2022-11-24T23:36:31.571Z,4.35
2022-11-24T23:39:04.062Z,6.10
2022-11-24T23:41:32.026Z,5.05
2022-11-24T23:43:59.751Z,4.35
2022-11-24T23:46:28.211Z,3.85
2022-11-24T23:48:56.961Z,5.28
2022-11-24T23:51:25.312Z,4.38
2022-11-24T23:53:53.046Z,5.20
2022-11-24T23:56:23.083Z,3.95
2022-11-24T23:58:50.864Z,4.65
